Portada
METAR-TAF:

METAR-TAF

Aeroports :

Burgas, Bulgària

latitud: 42-29N, longitud: 027-29E, altitud: 16 m

Observació

L'informe es va fer fa 34 minuts, a les 19:30 UTC
Vent 10 kt del Nord-Est
Temperatura 24°C
Humitat 69%
Pressió 1019 hPa
Visibilitat 10 km o més
sense núvols per sota de 1500 mi sense presència de cumulonimbus.

METAR: LBBG 241930Z 05010KT CAVOK 24/18 Q1019 NOSIG

Hora: 23:04 (20:04 UTC)

Pronòstic

L'informe es va fer fa 3 hores i 4 minuts, a les 17:00 UTC
Pronòstic vàlid del 24 a les 18 UTC al 25 a les 18 UTC
Vent 10 kt del Est/Nord-Est
Visibilitat 10 km o més
sense núvols per sota de 1500 mi sense presència de cumulonimbus.
Evolucionant progressivament
l' 24 a les 20 UTC al 24 a les 22 UTC
Vent 4 kt amb direcció variable
Evolucionant progressivament
l' 25 a les 07 UTC al 25 a les 09 UTC
Vent 16 kt del Est

TAF: LBBG 241700Z 2418/2518 06010KT CAVOK BECMG 2420/2422 VRB04KT BECMG 2507/2509 09016KT

Observacions i pronòstics meteorològics de més de 4000 aeroports (METAR i TAF).

Les estacions disponibles són els punts grocs i vermells al mapa.

Posi el ratolí al punt desitjat per veure el nom de l'estació.

Feu clic per veure les observacions i els pronòstics meteorològics.

Per canviar el mapa: feu clic els botons verds amb una creu de color negre per apropar; al botó verd amb un guió per allunyar la imatge; o en les fletxes verdes per a mapes adjacents.


METAR-TAF: